Time;durP1;ratioP1;P1;durP2;ratioP2;P2;SDS_P1;SDS_P2;PMS_P1;PMS_P2;Temp;Humidity;BMP_temperature;BMP_pressure;BME280_temperature;BME280_humidity;BME280_pressure;Samples;Min_cycle;Max_cycle;Signal;HPM_P1;HPM_P2
2022/10/02 00:02:18;;;;;;;11.30;2.38;;;11.80;99.90;;;;;;4950537;29;20522;-90
2022/10/02 00:05:01;;;;;;;14.70;1.73;;;11.80;99.90;;;;;;4918701;29;20047;-89
2022/10/02 00:07:41;;;;;;;10.25;1.83;;;11.90;99.90;;;;;;4950979;29;20070;-90
2022/10/02 00:10:19;;;;;;;16.50;2.13;;;11.70;99.90;;;;;;4951103;29;20511;-90
2022/10/02 00:12:51;;;;;;;15.50;2.40;;;11.70;99.90;;;;;;4950734;29;20051;-92
2022/10/02 00:15:27;;;;;;;10.90;1.80;;;11.70;99.90;;;;;;4950959;29;20043;-92
2022/10/02 00:17:59;;;;;;;20.60;2.33;;;11.60;99.90;;;;;;4950705;29;20047;-92
2022/10/02 00:20:37;;;;;;;18.65;2.75;;;11.50;99.90;;;;;;4949860;29;20047;-93
2022/10/02 00:23:10;;;;;;;25.52;4.20;;;11.40;99.90;;;;;;4950774;29;20043;-93
2022/10/02 00:25:47;;;;;;;19.75;3.58;;;11.40;99.90;;;;;;4950837;29;20043;-93
2022/10/02 00:28:24;;;;;;;23.75;3.97;;;11.40;99.90;;;;;;4950739;29;20138;-92
2022/10/02 00:31:10;;;;;;;20.75;4.22;;;11.40;99.90;;;;;;4951048;29;20043;-92
2022/10/02 00:33:59;;;;;;;17.52;3.63;;;11.30;99.90;;;;;;4949688;29;20054;-93
2022/10/02 00:36:45;;;;;;;18.52;3.42;;;11.20;99.90;;;;;;4931281;29;20044;-93
2022/10/02 00:39:15;;;;;;;27.00;4.07;;;11.20;99.90;;;;;;4931311;29;20051;-92
2022/10/02 00:42:00;;;;;;;21.40;3.75;;;11.30;99.90;;;;;;4931035;29;20130;-92
2022/10/02 00:45:05;;;;;;;22.67;4.43;;;11.30;99.90;;;;;;4931311;29;20052;-92
2022/10/02 00:47:46;;;;;;;26.65;6.07;;;11.20;99.90;;;;;;4902805;29;20051;-92
2022/10/02 00:50:41;;;;;;;34.15;7.10;;;11.10;99.90;;;;;;4940739;29;20047;-92
2022/10/02 00:53:30;;;;;;;25.98;6.90;;;11.00;99.90;;;;;;4915723;29;20051;-92
2022/10/02 00:56:13;;;;;;;31.55;7.85;;;11.00;99.90;;;;;;4931342;29;20058;-91
2022/10/02 00:59:00;;;;;;;29.00;7.60;;;11.00;99.90;;;;;;4931467;29;20055;-92
2022/10/02 01:01:40;;;;;;;21.55;5.80;;;10.90;99.90;;;;;;4915126;29;20048;-93
2022/10/02 01:04:14;;;;;;;20.67;6.10;;;10.80;99.90;;;;;;4931349;29;20059;-92
2022/10/02 01:06:40;;;;;;;29.40;5.88;;;10.90;99.90;;;;;;4934223;29;20504;-92
2022/10/02 01:09:15;;;;;;;28.27;5.55;;;10.80;99.90;;;;;;4935040;29;20111;-92
2022/10/02 01:12:02;;;;;;;23.05;4.70;;;10.80;99.90;;;;;;4919245;29;20091;-93
2022/10/02 01:14:32;;;;;;;31.30;4.75;;;10.80;99.90;;;;;;4919336;29;20052;-92
2022/10/02 01:16:58;;;;;;;28.23;4.82;;;10.70;99.90;;;;;;4945762;29;20512;-92
2022/10/02 01:19:35;;;;;;;24.50;4.85;;;10.80;99.90;;;;;;4922834;29;20468;-92
2022/10/02 01:22:12;;;;;;;26.70;4.85;;;10.70;99.90;;;;;;4921367;29;20073;-92
2022/10/02 01:24:57;;;;;;;30.38;5.25;;;10.80;99.90;;;;;;4922514;29;20558;-92
2022/10/02 01:27:34;;;;;;;25.67;4.47;;;10.70;99.90;;;;;;4922506;29;20047;-92
2022/10/02 01:30:14;;;;;;;28.48;4.18;;;10.60;99.90;;;;;;4922501;29;20113;-92
2022/10/02 01:32:51;;;;;;;29.65;4.43;;;10.60;99.90;;;;;;4922564;29;20053;-93
2022/10/02 01:35:30;;;;;;;25.88;4.05;;;10.60;99.90;;;;;;4932010;28;20201;-93
2022/10/02 01:38:03;;;;;;;19.55;4.13;;;10.60;99.90;;;;;;4940659;28;20561;-93
2022/10/02 01:40:36;;;;;;;23.33;3.70;;;10.60;99.90;;;;;;4940876;28;20054;-92
2022/10/02 01:43:11;;;;;;;26.02;3.70;;;10.70;99.90;;;;;;4940261;28;20049;-94
2022/10/02 01:46:13;;;;;;;20.95;4.07;;;10.70;99.90;;;;;;4941044;28;20039;-93
2022/10/02 01:49:01;;;;;;;20.73;3.70;;;10.60;99.90;;;;;;4941328;28;20046;-93
2022/10/02 01:51:51;;;;;;;23.02;4.13;;;10.70;99.90;;;;;;4955867;28;20059;-93
2022/10/02 01:55:02;;;;;;;19.80;3.88;;;10.20;99.90;;;;;;4941203;28;20471;-94
2022/10/02 01:57:58;;;;;;;23.58;3.58;;;10.70;99.90;;;;;;4939908;28;20049;-93
2022/10/02 02:00:37;;;;;;;21.95;4.28;;;10.80;99.90;;;;;;4957177;28;20050;-93
2022/10/02 02:03:27;;;;;;;28.13;4.25;;;10.80;99.90;;;;;;4940549;28;20055;-93
2022/10/02 02:06:14;;;;;;;28.20;3.50;;;10.70;99.90;;;;;;4939926;28;20053;-93
2022/10/02 02:09:10;;;;;;;23.88;3.42;;;10.90;99.90;;;;;;4940151;28;20057;-93
2022/10/02 02:11:43;;;;;;;23.42;3.60;;;10.90;99.90;;;;;;4940489;28;20050;-93
2022/10/02 02:14:16;;;;;;;32.78;5.00;;;10.70;99.90;;;;;;4957078;28;20442;-92
2022/10/02 02:16:47;;;;;;;23.48;3.80;;;10.80;99.90;;;;;;4940199;28;20121;-93
2022/10/02 02:19:37;;;;;;;23.92;4.03;;;10.70;99.90;;;;;;4940396;28;20039;-93
2022/10/02 02:22:27;;;;;;;25.58;4.20;;;10.70;99.90;;;;;;4940630;28;20046;-93
2022/10/02 02:24:56;;;;;;;28.05;3.75;;;10.70;99.90;;;;;;4954840;28;20050;-94
2022/10/02 02:27:26;;;;;;;26.25;3.40;;;10.80;99.90;;;;;;4940576;28;20050;-93
2022/10/02 02:29:59;;;;;;;29.58;3.60;;;10.80;99.90;;;;;;4955982;28;20051;-93
2022/10/02 02:32:30;;;;;;;23.08;4.32;;;10.70;99.90;;;;;;4939828;28;20582;-93
2022/10/02 02:35:16;;;;;;;24.80;4.00;;;10.80;99.90;;;;;;4939516;28;20046;-94
2022/10/02 02:37:52;;;;;;;31.55;4.10;;;10.80;99.90;;;;;;4940218;28;20554;-93
2022/10/02 02:40:32;;;;;;;22.58;3.15;;;10.20;99.90;;;;;;4939603;28;20057;-92
2022/10/02 02:43:07;;;;;;;26.45;4.13;;;10.90;99.90;;;;;;4940602;28;20138;-93
2022/10/02 02:45:38;;;;;;;29.20;4.22;;;10.80;99.90;;;;;;4939814;28;20053;-93
2022/10/02 02:48:10;;;;;;;21.40;2.83;;;11.30;99.90;;;;;;4939718;28;20051;-93
2022/10/02 02:50:54;;;;;;;22.17;2.85;;;10.80;99.90;;;;;;4939118;28;20475;-93
2022/10/02 02:53:36;;;;;;;23.33;2.97;;;10.90;99.90;;;;;;4939880;28;20054;-93
2022/10/02 02:56:10;;;;;;;19.98;3.35;;;10.90;99.90;;;;;;4939984;28;20046;-93
2022/10/02 02:58:58;;;;;;;16.85;3.00;;;11.10;99.90;;;;;;4939928;28;20109;-93
2022/10/02 03:01:24;;;;;;;21.13;3.03;;;10.90;99.90;;;;;;4938817;28;20038;-93
2022/10/02 03:03:50;;;;;;;20.83;2.83;;;11.20;99.90;;;;;;4940173;28;20054;-93
2022/10/02 03:06:30;;;;;;;22.60;2.53;;;11.20;99.90;;;;;;4938881;28;20051;-92
2022/10/02 03:08:57;;;;;;;20.35;2.88;;;11.30;99.90;;;;;;4939039;28;20070;-93
2022/10/02 03:11:31;;;;;;;15.25;2.28;;;11.20;99.90;;;;;;4940204;28;20181;-92
2022/10/02 03:14:09;;;;;;;19.58;2.80;;;11.20;99.90;;;;;;4938823;28;20138;-94
2022/10/02 03:16:53;;;;;;;20.83;2.03;;;11.20;99.90;;;;;;4962632;28;20044;-94
2022/10/02 03:19:33;;;;;;;17.52;2.83;;;11.30;99.90;;;;;;4958854;28;20042;-94
2022/10/02 03:22:20;;;;;;;17.27;2.17;;;11.30;99.90;;;;;;4956642;28;20046;-94
2022/10/02 03:24:56;;;;;;;14.98;2.22;;;11.40;99.90;;;;;;4974374;28;20061;-94
2022/10/02 03:27:31;;;;;;;19.08;2.75;;;11.40;99.90;;;;;;4974205;28;20057;-94
2022/10/02 03:30:03;;;;;;;19.48;2.85;;;11.20;99.90;;;;;;4957876;28;20058;-93
2022/10/02 03:32:31;;;;;;;21.83;2.35;;;11.20;99.90;;;;;;4958941;28;20050;-94
2022/10/02 03:34:57;;;;;;;17.65;2.40;;;11.30;99.90;;;;;;4954056;28;20146;-93
2022/10/02 03:37:27;;;;;;;20.02;2.65;;;11.20;99.90;;;;;;4970508;28;20051;-94
2022/10/02 03:39:57;;;;;;;14.93;2.42;;;11.20;99.90;;;;;;4954902;28;20043;-94
2022/10/02 03:42:26;;;;;;;18.15;2.33;;;11.20;99.90;;;;;;4938522;28;20121;-94
2022/10/02 03:44:52;;;;;;;20.83;3.40;;;11.10;99.90;;;;;;4955130;28;20043;-93
2022/10/02 03:47:18;;;;;;;21.13;2.30;;;11.10;99.90;;;;;;4973585;23;20058;-94
2022/10/02 03:49:55;;;;;;;23.55;2.85;;;11.10;99.90;;;;;;5005725;28;20074;-94
2022/10/02 03:52:24;;;;;;;22.40;3.13;;;11.00;99.90;;;;;;4990675;28;20449;-94
2022/10/02 03:54:57;;;;;;;17.65;2.65;;;11.10;99.90;;;;;;4989811;28;20046;-94
2022/10/02 03:57:25;;;;;;;19.15;2.50;;;11.10;99.90;;;;;;4989961;28;20046;-94
2022/10/02 04:00:04;;;;;;;20.38;3.13;;;11.10;99.90;;;;;;4989638;28;20419;-94
2022/10/02 04:03:23;;;;;;;24.95;2.83;;;11.00;99.90;;;;;;5006207;28;20498;-94
2022/10/02 04:06:04;;;;;;;26.63;2.88;;;10.90;99.90;;;;;;4955746;28;20046;-95
2022/10/02 04:08:35;;;;;;;22.67;2.78;;;11.10;99.90;;;;;;4989961;28;20486;-94
2022/10/02 04:11:17;;;;;;;27.90;2.60;;;11.10;99.90;;;;;;4972920;28;20077;-94
2022/10/02 04:14:12;;;;;;;17.15;2.85;;;11.20;99.90;;;;;;5004938;28;20051;-94
2022/10/02 04:16:45;;;;;;;12.65;2.20;;;11.60;99.90;;;;;;5006704;28;20078;-94
2022/10/02 04:19:17;;;;;;;;;;;11.10;99.90;;;;;;4989166;28;20053;-95
2022/10/02 04:21:50;;;;;;;14.32;2.75;;;11.10;99.90;;;;;;4989510;28;19926;-94
2022/10/02 04:24:43;;;;;;;;;;;11.10;99.90;;;;;;4989685;28;20042;-94
2022/10/02 04:27:35;;;;;;;22.42;2.88;;;10.90;99.90;;;;;;4989996;28;20023;-94
2022/10/02 04:30:08;;;;;;;24.88;2.63;;;11.00;99.90;;;;;;4972868;28;20054;-94
2022/10/02 04:32:39;;;;;;;20.10;3.05;;;11.00;99.90;;;;;;4989220;28;20038;-95
2022/10/02 04:35:12;;;;;;;29.05;4.15;;;10.90;99.90;;;;;;4988924;28;20061;-95
2022/10/02 04:38:13;;;;;;;18.48;2.65;;;11.00;99.90;;;;;;5006217;28;20054;-95
2022/10/02 04:41:11;;;;;;;23.25;3.33;;;11.00;99.90;;;;;;4981509;28;20043;-94
2022/10/02 04:44:10;;;;;;;17.15;2.60;;;10.80;99.90;;;;;;4970436;28;20487;-94
2022/10/02 04:47:08;;;;;;;32.40;3.35;;;10.90;99.90;;;;;;4971565;28;20069;-95
2022/10/02 04:49:53;;;;;;;19.45;2.40;;;10.90;99.90;;;;;;4973712;28;20047;-95
2022/10/02 04:52:47;;;;;;;24.98;2.50;;;11.00;99.90;;;;;;4989246;28;20074;-95
2022/10/02 04:55:56;;;;;;;26.60;3.25;;;11.10;99.90;;;;;;4973635;28;20042;-95
2022/10/02 04:58:45;;;;;;;26.58;3.28;;;11.40;99.90;;;;;;4973977;28;20053;-94
2022/10/02 05:01:57;;;;;;;24.45;2.67;;;11.00;99.90;;;;;;4972597;28;20034;-94
2022/10/02 05:04:57;;;;;;;17.02;2.80;;;10.90;99.90;;;;;;4957557;28;20540;-94
2022/10/02 05:07:34;;;;;;;24.08;3.00;;;10.80;99.90;;;;;;4972412;28;20090;-95
2022/10/02 05:10:24;;;;;;;21.73;2.88;;;10.90;99.90;;;;;;4973135;28;20049;-94
2022/10/02 05:13:12;;;;;;;22.77;2.72;;;10.80;99.90;;;;;;4973743;28;20042;-95
2022/10/02 05:16:10;;;;;;;25.63;3.15;;;11.00;99.90;;;;;;4972872;28;20054;-94
2022/10/02 05:19:22;;;;;;;22.83;3.05;;;10.90;99.90;;;;;;4972857;28;20045;-95
2022/10/02 05:22:17;;;;;;;20.23;2.75;;;10.90;99.90;;;;;;4972086;28;20050;-95
2022/10/02 05:24:55;;;;;;;20.60;2.55;;;11.00;99.90;;;;;;4973253;28;20055;-94
2022/10/02 05:27:48;;;;;;;17.98;2.67;;;10.80;99.90;;;;;;4988854;28;20046;-95
2022/10/02 05:30:16;;;;;;;24.08;2.58;;;10.80;99.90;;;;;;4975345;28;20053;-94
2022/10/02 05:33:17;;;;;;;20.92;2.63;;;10.70;99.90;;;;;;4974340;28;20050;-91
2022/10/02 05:36:07;;;;;;;28.08;3.30;;;10.30;99.90;;;;;;4973580;28;20053;-95
2022/10/02 05:42:32;;;;;;;32.13;2.72;;;10.40;99.90;;;;;;4962763;28;20483;-94
2022/10/02 05:45:23;;;;;;;23.20;2.83;;;10.40;99.90;;;;;;4976300;28;20038;-93
2022/10/02 05:48:06;;;;;;;16.90;2.30;;;10.50;99.90;;;;;;4972763;28;20082;-92
2022/10/02 05:50:58;;;;;;;21.40;2.58;;;10.50;99.90;;;;;;4973879;28;20072;-93
2022/10/02 05:53:35;;;;;;;25.95;2.75;;;10.30;99.90;;;;;;4983344;28;20101;-91
2022/10/02 05:56:16;;;;;;;21.88;3.00;;;10.10;99.90;;;;;;4977299;28;20903;-91
2022/10/02 05:58:52;;;;;;;21.52;2.58;;;10.00;99.90;;;;;;4977919;28;20050;-92
2022/10/02 06:01:47;;;;;;;16.58;2.70;;;10.10;99.90;;;;;;4978241;28;20123;-92
2022/10/02 06:04:35;;;;;;;23.38;2.55;;;9.60;99.90;;;;;;4934999;28;20284;-93
2022/10/02 06:07:22;;;;;;;22.65;3.28;;;10.10;99.90;;;;;;4974318;28;20043;-93
2022/10/02 06:09:56;;;;;;;26.58;2.92;;;9.90;99.90;;;;;;4972363;28;20047;-92
2022/10/02 06:12:37;;;;;;;24.02;3.50;;;10.00;99.90;;;;;;4973401;28;20051;-92
2022/10/02 06:15:33;;;;;;;31.90;2.83;;;10.00;99.90;;;;;;4972763;28;20098;-92
2022/10/02 06:18:09;;;;;;;19.95;2.75;;;10.20;99.90;;;;;;4972570;28;20046;-92
2022/10/02 06:21:10;;;;;;;17.67;2.63;;;10.20;99.90;;;;;;4972504;28;20047;-91
2022/10/02 06:23:42;;;;;;;20.92;2.83;;;10.20;99.90;;;;;;4972849;28;20090;-92
2022/10/02 06:26:27;;;;;;;18.77;2.60;;;10.20;99.90;;;;;;4972337;28;20495;-93
2022/10/02 06:29:16;;;;;;;33.33;3.38;;;10.30;99.90;;;;;;4972833;28;20053;-92
2022/10/02 06:32:09;;;;;;;20.98;2.78;;;10.30;99.90;;;;;;4987991;28;20522;-91
2022/10/02 06:34:35;;;;;;;22.38;2.72;;;10.50;99.90;;;;;;4988598;28;20145;-92
2022/10/02 06:37:24;;;;;;;27.83;3.70;;;10.50;99.90;;;;;;4971182;28;20605;-92
2022/10/02 06:40:10;;;;;;;23.15;2.75;;;10.60;99.90;;;;;;4987359;28;20053;-91
2022/10/02 06:42:42;;;;;;;21.13;2.70;;;10.60;99.90;;;;;;4989042;28;20047;-93
2022/10/02 06:48:37;;;;;;;27.83;3.17;;;10.70;99.90;;;;;;4972784;28;19928;-92
2022/10/02 06:51:08;;;;;;;;;;;10.80;99.90;;;;;;4955962;28;20055;-92
2022/10/02 06:54:02;;;;;;;19.80;3.20;;;11.00;99.90;;;;;;4971280;28;19917;-92
2022/10/02 06:56:34;;;;;;;;;;;11.70;99.90;;;;;;4972444;28;20050;-92
2022/10/02 06:59:23;;;;;;;21.02;3.10;;;11.20;99.90;;;;;;4970879;28;20013;-92
2022/10/02 07:02:26;;;;;;;18.83;2.90;;;11.40;99.90;;;;;;4971966;28;20430;-93
2022/10/02 07:05:14;;;;;;;16.83;2.75;;;11.70;99.90;;;;;;4986845;28;20213;-93
2022/10/02 07:08:02;;;;;;;20.90;3.20;;;11.70;99.90;;;;;;4971115;28;20388;-92
2022/10/02 07:10:42;;;;;;;20.67;3.20;;;11.90;99.90;;;;;;4971469;28;20096;-92
2022/10/02 07:13:26;;;;;;;24.20;2.63;;;12.30;99.90;;;;;;4971385;28;20053;-92
2022/10/02 07:16:16;;;;;;;25.40;2.58;;;12.10;99.90;;;;;;4971882;28;20100;-92
2022/10/02 07:18:58;;;;;;;23.23;2.80;;;12.10;99.90;;;;;;4956057;28;20059;-90
2022/10/02 07:21:38;;;;;;;23.20;3.45;;;12.10;99.90;;;;;;4970617;28;20047;-90
2022/10/02 07:24:43;;;;;;;23.98;2.90;;;12.20;99.90;;;;;;4956647;28;20490;-90
2022/10/02 07:27:22;;;;;;;21.80;3.10;;;12.20;99.90;;;;;;4971295;28;20360;-91
2022/10/02 07:30:01;;;;;;;22.38;3.53;;;12.20;99.90;;;;;;4974777;28;20127;-91
2022/10/02 07:32:55;;;;;;;23.00;3.42;;;12.20;99.90;;;;;;4971360;28;20050;-91
2022/10/02 07:35:36;;;;;;;23.90;2.70;;;12.30;99.90;;;;;;4969930;28;20039;-91
2022/10/02 07:38:11;;;;;;;32.28;3.67;;;12.30;99.90;;;;;;4963182;28;20058;-91
2022/10/02 07:40:41;;;;;;;20.67;3.13;;;12.30;99.90;;;;;;4971989;28;20038;-91
2022/10/02 07:43:25;;;;;;;29.42;4.20;;;12.40;99.90;;;;;;4971336;28;20102;-91
2022/10/02 07:46:22;;;;;;;19.25;2.92;;;12.40;99.90;;;;;;4970680;28;20047;-93
2022/10/02 07:48:59;;;;;;;23.45;2.70;;;12.50;99.90;;;;;;4970676;28;20055;-92
2022/10/02 07:51:52;;;;;;;27.15;3.50;;;12.60;99.90;;;;;;4970944;28;20046;-92
2022/10/02 07:54:36;;;;;;;20.88;2.97;;;12.70;99.90;;;;;;4955251;28;20490;-91
2022/10/02 07:57:22;;;;;;;26.85;2.92;;;12.80;99.90;;;;;;4954587;28;20047;-92
2022/10/02 07:59:53;;;;;;;24.63;3.15;;;12.90;99.90;;;;;;4954501;28;20053;-92
2022/10/02 08:02:43;;;;;;;22.27;2.95;;;13.20;99.90;;;;;;4954360;28;20049;-93
2022/10/02 08:05:39;;;;;;;23.27;2.58;;;12.80;99.90;;;;;;4937696;28;20054;-93
2022/10/02 08:09:05;;;;;;;17.30;2.17;;;12.80;99.90;;;;;;4939710;28;20057;-93
2022/10/02 08:11:14;;;;;;;21.70;2.75;;;12.90;99.90;;;;;;4944070;28;20089;-93
2022/10/02 08:13:46;;;;;;;17.35;3.15;;;12.90;99.90;;;;;;4939046;28;20073;-92
2022/10/02 08:16:22;;;;;;;17.15;2.75;;;12.90;99.90;;;;;;4954260;28;20046;-92
2022/10/02 08:19:04;;;;;;;19.48;3.05;;;12.90;99.90;;;;;;4938425;28;20126;-92
2022/10/02 08:21:42;;;;;;;16.48;2.58;;;13.00;99.90;;;;;;4938181;28;20047;-93
2022/10/02 08:24:17;;;;;;;12.88;1.90;;;13.10;99.90;;;;;;4937866;28;20495;-94
2022/10/02 08:27:02;;;;;;;20.02;2.83;;;13.20;99.90;;;;;;4938528;28;20039;-92
2022/10/02 08:29:45;;;;;;;16.08;2.08;;;13.30;99.90;;;;;;4938633;28;20049;-93
2022/10/02 08:32:12;;;;;;;17.88;2.63;;;13.30;99.90;;;;;;4938328;28;20054;-93
2022/10/02 08:34:39;;;;;;;15.00;2.30;;;13.30;99.90;;;;;;4938527;28;20046;-93
2022/10/02 08:37:24;;;;;;;15.30;2.45;;;13.30;99.90;;;;;;4953952;28;20057;-91
2022/10/02 08:40:17;;;;;;;11.90;2.72;;;13.20;99.90;;;;;;4937485;28;20513;-93
2022/10/02 08:43:03;;;;;;;18.00;2.72;;;13.10;99.90;;;;;;4954554;28;20047;-93
2022/10/02 08:46:01;;;;;;;14.98;2.00;;;13.30;99.90;;;;;;4933650;29;20082;-92
2022/10/02 08:48:35;;;;;;;20.00;2.58;;;13.30;99.90;;;;;;4950334;28;20411;-94
2022/10/02 08:51:21;;;;;;;18.38;2.40;;;13.30;99.90;;;;;;4972342;28;20050;-92
2022/10/02 08:53:58;;;;;;;18.65;2.58;;;13.40;99.90;;;;;;4972807;28;20072;-92
2022/10/02 08:56:31;;;;;;;14.07;2.47;;;13.40;99.90;;;;;;4973174;28;20046;-91
2022/10/02 08:59:07;;;;;;;;;;;13.40;99.90;;;;;;4973001;28;20089;-93
2022/10/02 09:01:56;;;;;;;13.63;2.17;;;13.50;99.90;;;;;;4973155;28;19925;-91
2022/10/02 09:04:59;;;;;;;16.42;2.80;;;13.40;99.90;;;;;;4957237;28;20050;-91
2022/10/02 09:07:44;;;;;;;;;;;13.40;99.90;;;;;;4956873;28;20483;-89
2022/10/02 09:10:48;;;;;;;15.73;2.20;;;13.30;99.90;;;;;;4972593;28;19922;-89
2022/10/02 09:14:08;;;;;;;14.35;2.40;;;13.40;99.90;;;;;;4988651;28;20164;-90
2022/10/02 09:16:44;;;;;;;11.32;2.10;;;13.50;99.90;;;;;;4972984;28;20046;-90
2022/10/02 09:19:38;;;;;;;14.07;2.40;;;13.50;99.90;;;;;;4957090;28;20092;-91
2022/10/02 09:22:28;;;;;;;16.67;2.10;;;13.60;99.90;;;;;;4956223;28;20042;-91
2022/10/02 09:25:12;;;;;;;13.65;2.60;;;13.60;99.90;;;;;;4956582;28;20057;-91
2022/10/02 09:27:49;;;;;;;15.23;2.58;;;13.60;99.90;;;;;;4975961;28;20059;-92
2022/10/02 09:30:42;;;;;;;14.68;2.55;;;13.50;99.90;;;;;;4999600;28;20104;-91
2022/10/02 09:33:49;;;;;;;14.18;2.17;;;13.50;99.90;;;;;;4960686;28;20046;-92
2022/10/02 09:36:30;;;;;;;18.33;2.45;;;13.50;99.90;;;;;;5009105;28;20367;-92
2022/10/02 09:39:28;;;;;;;11.10;1.52;;;13.60;99.90;;;;;;4977176;28;20129;-92
2022/10/02 09:42:24;;;;;;;11.70;1.67;;;13.80;99.90;;;;;;4959619;28;20054;-92
2022/10/02 09:45:29;;;;;;;15.43;2.20;;;14.00;99.90;;;;;;4960369;28;20046;-92
2022/10/02 09:48:15;;;;;;;15.50;2.05;;;14.10;99.90;;;;;;4959633;28;20141;-92
2022/10/02 09:51:06;;;;;;;13.70;2.63;;;14.20;99.90;;;;;;4991801;28;20046;-91
2022/10/02 09:54:01;;;;;;;16.55;2.40;;;14.40;99.90;;;;;;4976480;28;20110;-91
2022/10/02 09:56:39;;;;;;;18.63;2.60;;;14.40;99.90;;;;;;4960000;28;20080;-91
2022/10/02 09:59:29;;;;;;;27.90;2.78;;;14.60;99.90;;;;;;5009021;28;20046;-91
2022/10/02 10:02:18;;;;;;;16.70;2.50;;;14.70;99.90;;;;;;4991881;28;20064;-92
2022/10/02 10:05:07;;;;;;;17.30;3.05;;;14.70;99.90;;;;;;4959755;28;20438;-92
2022/10/02 10:07:44;;;;;;;16.27;2.47;;;14.90;99.90;;;;;;5008512;28;20050;-91
2022/10/02 10:10:24;;;;;;;18.17;3.25;;;15.00;99.90;;;;;;4991820;28;20077;-91
2022/10/02 10:12:53;;;;;;;16.08;2.80;;;15.00;99.90;;;;;;4976108;28;20046;-91
2022/10/02 10:15:52;;;;;;;15.68;2.80;;;15.20;99.90;;;;;;5007737;28;20518;-91
2022/10/02 10:18:55;;;;;;;14.68;2.40;;;15.40;99.90;;;;;;5008236;28;20056;-92
2022/10/02 10:21:43;;;;;;;23.00;3.20;;;15.50;99.90;;;;;;4975216;28;20050;-92
2022/10/02 10:24:34;;;;;;;19.42;3.35;;;15.50;99.90;;;;;;4975544;28;20301;-92
2022/10/02 10:27:15;;;;;;;26.90;3.10;;;15.40;99.90;;;;;;4975315;28;20050;-92
2022/10/02 10:29:59;;;;;;;18.50;2.63;;;15.30;99.90;;;;;;4975490;28;20042;-92
2022/10/02 10:32:39;;;;;;;;;;;15.20;99.90;;;;;;4975491;28;20509;-92
2022/10/02 10:35:28;;;;;;;16.58;2.65;;;15.30;99.90;;;;;;4991330;28;19925;-92
2022/10/02 10:38:58;;;;;;;23.20;3.22;;;15.50;99.90;;;;;;4973240;28;20050;-93
2022/10/02 10:42:00;;;;;;;16.95;2.72;;;15.60;99.90;;;;;;4974503;28;20078;-93
2022/10/02 10:44:54;;;;;;;18.02;2.65;;;15.70;99.90;;;;;;4974788;28;20388;-90
2022/10/02 10:50:45;;;;;;;15.52;2.45;;;15.40;99.90;;;;;;4990829;28;20054;-92
2022/10/02 10:53:37;;;;;;;18.45;2.70;;;15.30;99.90;;;;;;4958833;28;20082;-92
2022/10/02 11:02:38;;;;;;;18.20;3.05;;;15.10;99.90;;;;;;4977719;28;20048;-93
2022/10/02 11:05:32;;;;;;;23.10;2.75;;;15.10;99.90;;;;;;4974167;28;20054;-93
2022/10/02 11:08:28;;;;;;;13.90;2.63;;;15.30;99.90;;;;;;4974442;28;20623;-92
2022/10/02 11:11:31;;;;;;;18.35;3.00;;;15.40;99.90;;;;;;4974281;28;20042;-91
2022/10/02 11:14:25;;;;;;;13.85;2.55;;;15.40;99.90;;;;;;4973843;28;20101;-93
2022/10/02 11:18:11;;;;;;;23.48;2.95;;;15.60;99.90;;;;;;4974440;28;20132;-93
2022/10/02 11:20:46;;;;;;;15.57;2.53;;;15.40;99.90;;;;;;4962027;28;20058;-92
2022/10/02 11:23:31;;;;;;;12.52;1.95;;;15.30;99.90;;;;;;4974481;28;20047;-92
2022/10/02 11:26:33;;;;;;;23.42;3.15;;;14.90;99.90;;;;;;4973198;28;20137;-92
2022/10/02 11:29:06;;;;;;;14.32;2.63;;;15.50;99.90;;;;;;4973324;28;20142;-92
2022/10/02 11:31:55;;;;;;;19.55;3.22;;;15.60;99.90;;;;;;4974630;28;20092;-91
2022/10/02 11:35:01;;;;;;;16.27;2.30;;;15.80;99.90;;;;;;4973870;28;20054;-92
2022/10/02 11:37:46;;;;;;;18.33;2.47;;;16.00;99.90;;;;;;4974174;28;20046;-92
2022/10/02 11:40:37;;;;;;;20.02;2.95;;;16.10;99.90;;;;;;4973807;28;20120;-92
2022/10/02 11:43:31;;;;;;;;;;;;;;;;;;;;;
2022/10/02 11:46:16;;;;;;;15.23;2.53;;;16.20;99.90;;;;;;4973629;28;20089;-92
2022/10/02 11:49:07;;;;;;;18.30;2.70;;;16.20;99.90;;;;;;4973444;28;20039;-92
2022/10/02 11:51:47;;;;;;;15.23;1.92;;;16.30;99.90;;;;;;4957211;28;20045;-91
2022/10/02 11:54:34;;;;;;;20.83;2.58;;;16.30;99.90;;;;;;4957550;28;20120;-92
2022/10/02 11:57:13;;;;;;;16.60;2.38;;;16.20;99.90;;;;;;4957428;28;20093;-92
2022/10/02 12:03:13;;;;;;;15.80;2.75;;;16.20;99.90;;;;;;4953240;28;20050;-92
2022/10/02 12:05:58;;;;;;;19.00;2.42;;;16.20;99.90;;;;;;4937297;28;20057;-90
2022/10/02 12:08:57;;;;;;;16.73;1.98;;;16.20;99.90;;;;;;4938025;28;20059;-91
2022/10/02 12:11:41;;;;;;;17.42;1.85;;;16.20;99.90;;;;;;4938214;28;20042;-92
2022/10/02 12:14:35;;;;;;;17.30;2.00;;;16.20;99.90;;;;;;4937947;28;20074;-92
2022/10/02 12:17:29;;;;;;;15.45;2.38;;;16.10;99.90;;;;;;4937675;28;20554;-92
2022/10/02 12:28:54;;;;;;;18.58;2.97;;;16.20;99.90;;;;;;4934399;29;20054;-92
2022/10/02 12:31:50;;;;;;;18.25;2.83;;;16.10;99.90;;;;;;4918663;29;20551;-92
2022/10/02 12:34:58;;;;;;;16.00;2.40;;;16.10;99.90;;;;;;4934959;29;20499;-92
2022/10/02 12:37:35;;;;;;;23.13;2.55;;;16.10;99.90;;;;;;4935724;28;20062;-93
2022/10/02 12:40:16;;;;;;;13.25;2.45;;;16.00;99.90;;;;;;4953427;28;20097;-95
2022/10/02 12:43:00;;;;;;;16.58;3.53;;;16.10;99.90;;;;;;4953823;28;20134;-92
2022/10/02 12:46:00;;;;;;;17.25;2.70;;;16.00;99.90;;;;;;4953582;28;20046;-92
2022/10/02 12:48:44;;;;;;;18.88;2.58;;;16.10;99.90;;;;;;4953864;28;20062;-92
2022/10/02 12:51:24;;;;;;;15.02;2.25;;;16.20;99.90;;;;;;4953257;28;20051;-93
2022/10/02 12:53:53;;;;;;;20.60;3.05;;;16.10;99.90;;;;;;4953634;28;20544;-92
2022/10/02 12:56:59;;;;;;;26.85;3.70;;;16.10;99.90;;;;;;4954301;28;20074;-92
2022/10/02 12:59:48;;;;;;;23.85;3.53;;;16.00;99.90;;;;;;4953710;28;20538;-93
2022/10/02 13:03:06;;;;;;;15.30;2.50;;;16.00;99.90;;;;;;4953449;28;20047;-91
2022/10/02 13:06:13;;;;;;;23.60;3.47;;;15.90;99.90;;;;;;4952417;28;20055;-93
2022/10/02 13:09:10;;;;;;;17.73;3.10;;;15.90;99.90;;;;;;4946723;29;20051;-93
2022/10/02 13:12:06;;;;;;;22.02;2.65;;;15.80;99.90;;;;;;4922412;29;20417;-91
2022/10/02 13:15:03;;;;;;;20.13;2.42;;;15.90;99.90;;;;;;4919087;29;20102;-91
2022/10/02 13:17:45;;;;;;;18.92;3.10;;;15.70;99.90;;;;;;4934727;29;20043;-91
2022/10/02 13:20:39;;;;;;;14.15;2.50;;;15.60;99.90;;;;;;4934336;29;20155;-92
2022/10/02 13:23:22;;;;;;;20.30;2.35;;;15.50;99.90;;;;;;4934578;29;20597;-92
2022/10/02 13:25:57;;;;;;;19.38;2.90;;;15.40;99.90;;;;;;4933627;29;20043;-91
2022/10/02 13:28:39;;;;;;;17.50;2.92;;;15.50;99.90;;;;;;4934490;29;20221;-91
2022/10/02 13:31:21;;;;;;;21.43;2.60;;;15.50;99.90;;;;;;4934388;29;20058;-92
2022/10/02 13:34:06;;;;;;;16.98;2.70;;;15.50;99.90;;;;;;4933171;29;20474;-91
2022/10/02 13:36:48;;;;;;;19.38;3.20;;;15.50;99.90;;;;;;4933635;29;20051;-91
2022/10/02 13:39:47;;;;;;;22.90;3.65;;;15.40;99.90;;;;;;4934156;29;20106;-92
2022/10/02 13:42:17;;;;;;;14.80;2.25;;;15.50;99.90;;;;;;4933843;29;20395;-91
2022/10/02 13:45:02;;;;;;;18.35;2.83;;;15.50;99.90;;;;;;4933840;29;20054;-93
2022/10/02 13:47:49;;;;;;;20.35;3.38;;;15.50;99.90;;;;;;4933585;29;20174;-92
2022/10/02 13:50:51;;;;;;;19.13;3.47;;;15.50;99.90;;;;;;4933745;29;20105;-92
2022/10/02 13:53:46;;;;;;;18.17;3.40;;;15.60;99.90;;;;;;4933490;29;20067;-91
2022/10/02 13:56:34;;;;;;;17.13;2.85;;;15.60;99.90;;;;;;4933254;29;20137;-92
2022/10/02 13:59:14;;;;;;;23.20;3.40;;;15.70;99.90;;;;;;4936551;28;20122;-94
2022/10/02 14:02:04;;;;;;;20.95;3.33;;;15.70;99.90;;;;;;4937096;28;20051;-93
2022/10/02 14:04:30;;;;;;;24.35;2.63;;;15.50;99.90;;;;;;4937647;28;20169;-95
2022/10/02 14:07:28;;;;;;;16.70;3.20;;;15.50;99.90;;;;;;4932643;29;20110;-96
2022/10/02 14:10:10;;;;;;;19.00;2.75;;;15.30;99.90;;;;;;4932038;29;20051;-95
2022/10/02 14:13:02;;;;;;;24.00;3.00;;;15.50;99.90;;;;;;4921398;29;20055;-96
2022/10/02 14:15:57;;;;;;;24.77;2.63;;;15.40;99.90;;;;;;4956169;29;20106;-95
2022/10/02 14:18:40;;;;;;;22.77;3.47;;;15.50;99.90;;;;;;4920526;29;20380;-95
2022/10/02 14:21:12;;;;;;;18.40;2.92;;;15.50;99.90;;;;;;4919933;29;20101;-95
2022/10/02 14:23:58;;;;;;;17.70;2.60;;;15.50;99.90;;;;;;4919937;29;20551;-95
2022/10/02 14:26:46;;;;;;;20.27;3.05;;;15.60;99.90;;;;;;4926187;29;20051;-94
2022/10/02 14:29:25;;;;;;;19.67;2.67;;;15.60;99.90;;;;;;4936348;29;20075;-95
2022/10/02 14:32:10;;;;;;;15.75;2.70;;;15.70;99.90;;;;;;4919329;29;20047;-93
2022/10/02 14:34:48;;;;;;;18.48;2.58;;;15.80;99.90;;;;;;4918655;29;20062;-94
2022/10/02 14:37:36;;;;;;;19.10;2.40;;;15.80;99.90;;;;;;4918941;29;20318;-94
2022/10/02 14:40:12;;;;;;;23.50;3.10;;;15.90;99.90;;;;;;4917340;28;20245;-94